sensor_id;sensor_type;location;lat;lon;timestamp;temperature;humidity
11229;DHT22;5671;47.936;8.716;2024-03-29T00:01:22;-0.10;77.20
11229;DHT22;5671;47.936;8.716;2024-03-29T00:03:48;-0.20;77.10
11229;DHT22;5671;47.936;8.716;2024-03-29T00:06:14;-0.20;76.30
11229;DHT22;5671;47.936;8.716;2024-03-29T00:08:40;-0.20;77.20
11229;DHT22;5671;47.936;8.716;2024-03-29T00:11:07;-0.20;77.40
11229;DHT22;5671;47.936;8.716;2024-03-29T00:13:33;-0.20;76.50
11229;DHT22;5671;47.936;8.716;2024-03-29T00:15:59;-0.20;77.10
11229;DHT22;5671;47.936;8.716;2024-03-29T00:18:25;-0.30;76.80
11229;DHT22;5671;47.936;8.716;2024-03-29T00:20:51;-0.30;77.60
11229;DHT22;5671;47.936;8.716;2024-03-29T00:23:16;-0.40;77.40
11229;DHT22;5671;47.936;8.716;2024-03-29T00:25:43;-0.50;77.40
11229;DHT22;5671;47.936;8.716;2024-03-29T00:28:10;-0.40;77.10
11229;DHT22;5671;47.936;8.716;2024-03-29T00:30:36;-0.40;77.00
11229;DHT22;5671;47.936;8.716;2024-03-29T00:33:02;-0.40;77.10
11229;DHT22;5671;47.936;8.716;2024-03-29T00:35:28;-0.40;77.50
11229;DHT22;5671;47.936;8.716;2024-03-29T00:37:54;-0.40;76.90
11229;DHT22;5671;47.936;8.716;2024-03-29T00:40:20;-0.40;77.80
11229;DHT22;5671;47.936;8.716;2024-03-29T00:42:45;-0.40;76.90
11229;DHT22;5671;47.936;8.716;2024-03-29T00:45:13;-0.40;77.50
11229;DHT22;5671;47.936;8.716;2024-03-29T00:47:39;-0.40;77.20
11229;DHT22;5671;47.936;8.716;2024-03-29T00:50:05;-0.40;77.00
11229;DHT22;5671;47.936;8.716;2024-03-29T00:52:31;-0.40;77.10
11229;DHT22;5671;47.936;8.716;2024-03-29T00:54:57;-0.40;77.10
11229;DHT22;5671;47.936;8.716;2024-03-29T00:57:23;-0.40;77.20
11229;DHT22;5671;47.936;8.716;2024-03-29T00:59:49;-0.50;77.90
11229;DHT22;5671;47.936;8.716;2024-03-29T01:02:16;-0.60;77.90
11229;DHT22;5671;47.936;8.716;2024-03-29T01:04:42;-0.50;78.00
11229;DHT22;5671;47.936;8.716;2024-03-29T01:07:08;-0.50;78.70
11229;DHT22;5671;47.936;8.716;2024-03-29T01:09:34;-0.60;78.90
11229;DHT22;5671;47.936;8.716;2024-03-29T01:12:00;-0.60;79.00
11229;DHT22;5671;47.936;8.716;2024-03-29T01:14:26;-0.60;78.10
11229;DHT22;5671;47.936;8.716;2024-03-29T01:16:51;-0.50;78.40
11229;DHT22;5671;47.936;8.716;2024-03-29T01:19:19;-0.50;77.70
11229;DHT22;5671;47.936;8.716;2024-03-29T01:21:45;-0.60;77.70
11229;DHT22;5671;47.936;8.716;2024-03-29T01:24:11;-0.60;78.00
11229;DHT22;5671;47.936;8.716;2024-03-29T01:26:37;-0.60;78.10
11229;DHT22;5671;47.936;8.716;2024-03-29T01:29:02;-0.60;77.90
11229;DHT22;5671;47.936;8.716;2024-03-29T01:31:28;-0.60;78.60
11229;DHT22;5671;47.936;8.716;2024-03-29T01:33:54;-0.70;78.40
11229;DHT22;5671;47.936;8.716;2024-03-29T01:36:21;-0.70;78.60
11229;DHT22;5671;47.936;8.716;2024-03-29T01:38:47;-0.70;78.40
11229;DHT22;5671;47.936;8.716;2024-03-29T01:41:13;-0.60;77.90
11229;DHT22;5671;47.936;8.716;2024-03-29T01:43:39;-0.70;77.70
11229;DHT22;5671;47.936;8.716;2024-03-29T01:46:06;-0.60;77.80
11229;DHT22;5671;47.936;8.716;2024-03-29T01:48:33;-0.70;78.00
11229;DHT22;5671;47.936;8.716;2024-03-29T01:51:01;-0.80;78.20
11229;DHT22;5671;47.936;8.716;2024-03-29T01:53:29;-0.80;78.80
11229;DHT22;5671;47.936;8.716;2024-03-29T01:55:58;-0.80;78.80
11229;DHT22;5671;47.936;8.716;2024-03-29T01:58:26;-0.80;79.10
11229;DHT22;5671;47.936;8.716;2024-03-29T02:00:54;-0.90;79.90
11229;DHT22;5671;47.936;8.716;2024-03-29T02:03:21;-0.90;79.80
11229;DHT22;5671;47.936;8.716;2024-03-29T02:05:49;-1.00;79.70
11229;DHT22;5671;47.936;8.716;2024-03-29T02:08:16;-1.10;80.40
11229;DHT22;5671;47.936;8.716;2024-03-29T02:10:45;-1.00;79.70
11229;DHT22;5671;47.936;8.716;2024-03-29T02:13:13;-1.00;79.70
11229;DHT22;5671;47.936;8.716;2024-03-29T02:15:40;-1.00;79.50
11229;DHT22;5671;47.936;8.716;2024-03-29T02:18:07;-1.00;79.30
11229;DHT22;5671;47.936;8.716;2024-03-29T02:20:35;-1.00;79.60
11229;DHT22;5671;47.936;8.716;2024-03-29T02:23:06;-1.00;80.80
11229;DHT22;5671;47.936;8.716;2024-03-29T02:25:35;-1.00;80.40
11229;DHT22;5671;47.936;8.716;2024-03-29T02:28:02;-1.00;80.70
11229;DHT22;5671;47.936;8.716;2024-03-29T02:30:29;-1.00;80.90
11229;DHT22;5671;47.936;8.716;2024-03-29T02:32:57;-1.00;79.90
11229;DHT22;5671;47.936;8.716;2024-03-29T02:35:23;-1.00;81.30
11229;DHT22;5671;47.936;8.716;2024-03-29T02:37:51;-1.10;81.10
11229;DHT22;5671;47.936;8.716;2024-03-29T02:40:18;-1.10;80.80
11229;DHT22;5671;47.936;8.716;2024-03-29T02:42:47;-1.00;80.70
11229;DHT22;5671;47.936;8.716;2024-03-29T02:45:14;-1.10;81.40
11229;DHT22;5671;47.936;8.716;2024-03-29T02:47:41;-1.10;81.20
11229;DHT22;5671;47.936;8.716;2024-03-29T02:50:09;-1.20;82.40
11229;DHT22;5671;47.936;8.716;2024-03-29T02:52:36;-1.10;81.30
11229;DHT22;5671;47.936;8.716;2024-03-29T02:55:03;-1.10;81.40
11229;DHT22;5671;47.936;8.716;2024-03-29T02:57:29;-1.10;81.00
11229;DHT22;5671;47.936;8.716;2024-03-29T02:59:57;-1.00;80.90
11229;DHT22;5671;47.936;8.716;2024-03-29T03:02:23;-1.10;80.90
11229;DHT22;5671;47.936;8.716;2024-03-29T03:04:50;-1.10;81.30
11229;DHT22;5671;47.936;8.716;2024-03-29T03:07:15;-1.10;80.80
11229;DHT22;5671;47.936;8.716;2024-03-29T03:10:00;-1.00;80.70
11229;DHT22;5671;47.936;8.716;2024-03-29T03:12:44;-1.00;80.80
11229;DHT22;5671;47.936;8.716;2024-03-29T03:15:12;-1.10;81.10
11229;DHT22;5671;47.936;8.716;2024-03-29T03:17:39;-1.10;81.30
11229;DHT22;5671;47.936;8.716;2024-03-29T03:20:06;-1.00;80.70
11229;DHT22;5671;47.936;8.716;2024-03-29T03:22:34;-1.00;80.90
11229;DHT22;5671;47.936;8.716;2024-03-29T03:25:01;-1.00;81.00
11229;DHT22;5671;47.936;8.716;2024-03-29T03:27:27;-1.00;80.60
11229;DHT22;5671;47.936;8.716;2024-03-29T03:29:54;-1.00;81.00
11229;DHT22;5671;47.936;8.716;2024-03-29T03:32:21;-1.00;80.80
11229;DHT22;5671;47.936;8.716;2024-03-29T03:34:48;-1.00;81.40
11229;DHT22;5671;47.936;8.716;2024-03-29T03:37:13;-1.00;81.50
11229;DHT22;5671;47.936;8.716;2024-03-29T03:39:40;-1.00;81.40
11229;DHT22;5671;47.936;8.716;2024-03-29T03:42:06;-1.00;82.00
11229;DHT22;5671;47.936;8.716;2024-03-29T03:44:33;-1.00;82.40
11229;DHT22;5671;47.936;8.716;2024-03-29T03:46:58;-1.00;82.80
11229;DHT22;5671;47.936;8.716;2024-03-29T03:49:27;-1.00;82.50
11229;DHT22;5671;47.936;8.716;2024-03-29T03:51:52;-0.90;82.10
11229;DHT22;5671;47.936;8.716;2024-03-29T03:54:19;-0.90;81.80
11229;DHT22;5671;47.936;8.716;2024-03-29T03:56:45;-0.80;82.00
11229;DHT22;5671;47.936;8.716;2024-03-29T03:59:14;-0.80;82.20
11229;DHT22;5671;47.936;8.716;2024-03-29T04:01:40;-0.70;81.10
11229;DHT22;5671;47.936;8.716;2024-03-29T04:04:07;-0.70;80.30
11229;DHT22;5671;47.936;8.716;2024-03-29T04:06:34;-0.70;81.10
11229;DHT22;5671;47.936;8.716;2024-03-29T04:09:01;-0.70;81.70
11229;DHT22;5671;47.936;8.716;2024-03-29T04:11:27;-0.60;81.40
11229;DHT22;5671;47.936;8.716;2024-03-29T04:13:54;-0.60;81.10
11229;DHT22;5671;47.936;8.716;2024-03-29T04:16:20;-0.60;81.40
11229;DHT22;5671;47.936;8.716;2024-03-29T04:18:47;-0.50;81.30
11229;DHT22;5671;47.936;8.716;2024-03-29T04:21:12;-0.50;81.30
11229;DHT22;5671;47.936;8.716;2024-03-29T04:23:41;-0.50;81.40
11229;DHT22;5671;47.936;8.716;2024-03-29T04:26:06;-0.50;81.70
11229;DHT22;5671;47.936;8.716;2024-03-29T04:28:33;-0.50;82.10
11229;DHT22;5671;47.936;8.716;2024-03-29T04:31:00;-0.50;82.60
11229;DHT22;5671;47.936;8.716;2024-03-29T04:33:27;-0.50;81.70
11229;DHT22;5671;47.936;8.716;2024-03-29T04:35:55;-0.50;82.20
11229;DHT22;5671;47.936;8.716;2024-03-29T04:38:22;-0.50;82.10
11229;DHT22;5671;47.936;8.716;2024-03-29T04:40:52;-0.40;82.00
11229;DHT22;5671;47.936;8.716;2024-03-29T04:43:21;-0.50;82.00
11229;DHT22;5671;47.936;8.716;2024-03-29T04:45:48;-0.40;81.90
11229;DHT22;5671;47.936;8.716;2024-03-29T04:48:15;-0.50;82.90
11229;DHT22;5671;47.936;8.716;2024-03-29T04:50:42;-0.50;82.30
11229;DHT22;5671;47.936;8.716;2024-03-29T04:53:08;-0.40;81.50
11229;DHT22;5671;47.936;8.716;2024-03-29T04:55:35;-0.40;81.80
11229;DHT22;5671;47.936;8.716;2024-03-29T04:58:04;-0.40;82.90
11229;DHT22;5671;47.936;8.716;2024-03-29T05:00:30;-0.40;83.10
11229;DHT22;5671;47.936;8.716;2024-03-29T05:02:57;-0.40;83.30
11229;DHT22;5671;47.936;8.716;2024-03-29T05:05:24;-0.30;83.50
11229;DHT22;5671;47.936;8.716;2024-03-29T05:07:51;-0.40;83.20
11229;DHT22;5671;47.936;8.716;2024-03-29T05:10:17;-0.30;83.10
11229;DHT22;5671;47.936;8.716;2024-03-29T05:12:45;-0.30;82.80
11229;DHT22;5671;47.936;8.716;2024-03-29T05:15:13;-0.30;83.40
11229;DHT22;5671;47.936;8.716;2024-03-29T05:17:40;-0.20;83.10
11229;DHT22;5671;47.936;8.716;2024-03-29T05:20:08;-0.20;83.30
11229;DHT22;5671;47.936;8.716;2024-03-29T05:22:35;-0.20;83.30
11229;DHT22;5671;47.936;8.716;2024-03-29T05:25:02;-0.20;82.90
11229;DHT22;5671;47.936;8.716;2024-03-29T05:27:30;-0.20;82.50
11229;DHT22;5671;47.936;8.716;2024-03-29T05:29:56;-0.10;82.30
11229;DHT22;5671;47.936;8.716;2024-03-29T05:32:26;-0.10;82.30
11229;DHT22;5671;47.936;8.716;2024-03-29T05:34:54;-0.10;83.30
11229;DHT22;5671;47.936;8.716;2024-03-29T05:37:20;0.00;83.00
11229;DHT22;5671;47.936;8.716;2024-03-29T05:39:50;0.10;83.30
11229;DHT22;5671;47.936;8.716;2024-03-29T05:42:24;0.20;83.30
11229;DHT22;5671;47.936;8.716;2024-03-29T05:44:51;0.20;82.50
11229;DHT22;5671;47.936;8.716;2024-03-29T05:47:18;0.20;82.90
11229;DHT22;5671;47.936;8.716;2024-03-29T05:49:46;0.30;82.60
11229;DHT22;5671;47.936;8.716;2024-03-29T05:52:13;0.30;82.60
11229;DHT22;5671;47.936;8.716;2024-03-29T05:54:40;0.40;82.20
11229;DHT22;5671;47.936;8.716;2024-03-29T05:57:07;0.40;83.40
11229;DHT22;5671;47.936;8.716;2024-03-29T05:59:34;0.50;82.90
11229;DHT22;5671;47.936;8.716;2024-03-29T06:02:01;0.50;82.60
11229;DHT22;5671;47.936;8.716;2024-03-29T06:04:28;0.50;83.20
11229;DHT22;5671;47.936;8.716;2024-03-29T06:06:59;0.60;83.20
11229;DHT22;5671;47.936;8.716;2024-03-29T06:09:26;0.60;83.90
11229;DHT22;5671;47.936;8.716;2024-03-29T06:11:56;0.70;83.60
11229;DHT22;5671;47.936;8.716;2024-03-29T06:14:23;0.80;83.70
11229;DHT22;5671;47.936;8.716;2024-03-29T06:17:10;0.90;83.70
11229;DHT22;5671;47.936;8.716;2024-03-29T06:19:49;0.90;84.10
11229;DHT22;5671;47.936;8.716;2024-03-29T06:22:17;1.00;83.10
11229;DHT22;5671;47.936;8.716;2024-03-29T06:24:46;1.00;83.10
11229;DHT22;5671;47.936;8.716;2024-03-29T06:27:19;1.10;82.90
11229;DHT22;5671;47.936;8.716;2024-03-29T06:29:48;1.10;82.20
11229;DHT22;5671;47.936;8.716;2024-03-29T06:32:15;1.20;82.70
11229;DHT22;5671;47.936;8.716;2024-03-29T06:34:43;1.40;82.00
11229;DHT22;5671;47.936;8.716;2024-03-29T06:37:10;1.40;81.40
11229;DHT22;5671;47.936;8.716;2024-03-29T06:39:38;1.50;81.50
11229;DHT22;5671;47.936;8.716;2024-03-29T06:42:06;1.50;81.10
11229;DHT22;5671;47.936;8.716;2024-03-29T06:44:33;1.60;80.90
11229;DHT22;5671;47.936;8.716;2024-03-29T06:47:00;1.70;81.00
11229;DHT22;5671;47.936;8.716;2024-03-29T06:49:28;1.80;81.50
11229;DHT22;5671;47.936;8.716;2024-03-29T06:51:54;1.80;80.90
11229;DHT22;5671;47.936;8.716;2024-03-29T06:54:27;1.80;79.90
11229;DHT22;5671;47.936;8.716;2024-03-29T06:56:56;1.90;79.60
11229;DHT22;5671;47.936;8.716;2024-03-29T06:59:23;1.90;78.20
11229;DHT22;5671;47.936;8.716;2024-03-29T07:01:50;2.00;79.40
11229;DHT22;5671;47.936;8.716;2024-03-29T07:04:17;2.10;80.30
11229;DHT22;5671;47.936;8.716;2024-03-29T07:06:45;2.10;80.80
11229;DHT22;5671;47.936;8.716;2024-03-29T07:09:16;2.20;79.90
11229;DHT22;5671;47.936;8.716;2024-03-29T07:11:42;2.30;81.10
11229;DHT22;5671;47.936;8.716;2024-03-29T07:14:11;2.40;82.00
11229;DHT22;5671;47.936;8.716;2024-03-29T07:16:42;2.50;82.00
11229;DHT22;5671;47.936;8.716;2024-03-29T07:19:09;2.60;82.40
11229;DHT22;5671;47.936;8.716;2024-03-29T07:21:38;2.70;81.50
11229;DHT22;5671;47.936;8.716;2024-03-29T07:24:08;2.80;80.30
11229;DHT22;5671;47.936;8.716;2024-03-29T07:26:35;2.90;79.90
11229;DHT22;5671;47.936;8.716;2024-03-29T07:29:07;3.00;79.90
11229;DHT22;5671;47.936;8.716;2024-03-29T07:31:35;3.10;81.00
11229;DHT22;5671;47.936;8.716;2024-03-29T07:34:05;3.20;81.10
11229;DHT22;5671;47.936;8.716;2024-03-29T07:36:35;3.40;81.40
11229;DHT22;5671;47.936;8.716;2024-03-29T07:39:04;3.50;81.60
11229;DHT22;5671;47.936;8.716;2024-03-29T07:41:31;3.50;80.50
11229;DHT22;5671;47.936;8.716;2024-03-29T07:44:02;3.70;81.30
11229;DHT22;5671;47.936;8.716;2024-03-29T07:46:32;3.80;80.50
11229;DHT22;5671;47.936;8.716;2024-03-29T07:49:04;3.90;80.80
11229;DHT22;5671;47.936;8.716;2024-03-29T07:51:31;4.10;80.30
11229;DHT22;5671;47.936;8.716;2024-03-29T07:53:58;4.30;79.30
11229;DHT22;5671;47.936;8.716;2024-03-29T07:56:27;4.40;78.60
11229;DHT22;5671;47.936;8.716;2024-03-29T07:58:54;4.60;78.20
11229;DHT22;5671;47.936;8.716;2024-03-29T08:01:22;4.70;76.00
11229;DHT22;5671;47.936;8.716;2024-03-29T08:03:52;4.80;75.80
11229;DHT22;5671;47.936;8.716;2024-03-29T08:06:28;4.90;73.80
11229;DHT22;5671;47.936;8.716;2024-03-29T08:08:55;5.10;74.90
11229;DHT22;5671;47.936;8.716;2024-03-29T08:11:22;5.20;74.20
11229;DHT22;5671;47.936;8.716;2024-03-29T08:13:49;5.40;74.00
11229;DHT22;5671;47.936;8.716;2024-03-29T08:16:16;5.50;74.30
11229;DHT22;5671;47.936;8.716;2024-03-29T08:18:45;5.60;75.30
11229;DHT22;5671;47.936;8.716;2024-03-29T08:21:12;5.70;74.80
11229;DHT22;5671;47.936;8.716;2024-03-29T08:23:41;5.80;74.50
11229;DHT22;5671;47.936;8.716;2024-03-29T08:26:12;5.90;74.10
11229;DHT22;5671;47.936;8.716;2024-03-29T08:28:44;6.00;73.00
11229;DHT22;5671;47.936;8.716;2024-03-29T08:31:13;6.20;70.90
11229;DHT22;5671;47.936;8.716;2024-03-29T08:33:40;6.30;72.60
11229;DHT22;5671;47.936;8.716;2024-03-29T08:36:09;6.30;73.90
11229;DHT22;5671;47.936;8.716;2024-03-29T08:38:37;6.60;72.30
11229;DHT22;5671;47.936;8.716;2024-03-29T08:41:08;6.70;71.80
11229;DHT22;5671;47.936;8.716;2024-03-29T08:43:35;6.80;71.90
11229;DHT22;5671;47.936;8.716;2024-03-29T08:46:02;6.90;72.50
11229;DHT22;5671;47.936;8.716;2024-03-29T08:48:29;7.00;72.30
11229;DHT22;5671;47.936;8.716;2024-03-29T08:50:56;7.10;72.50
11229;DHT22;5671;47.936;8.716;2024-03-29T08:53:23;7.10;71.60
11229;DHT22;5671;47.936;8.716;2024-03-29T08:55:52;7.30;70.80
11229;DHT22;5671;47.936;8.716;2024-03-29T08:58:21;7.40;70.10
11229;DHT22;5671;47.936;8.716;2024-03-29T09:00:53;7.40;69.60
11229;DHT22;5671;47.936;8.716;2024-03-29T09:03:20;7.60;69.70
11229;DHT22;5671;47.936;8.716;2024-03-29T09:05:49;7.70;69.60
11229;DHT22;5671;47.936;8.716;2024-03-29T09:08:17;7.70;69.20
11229;DHT22;5671;47.936;8.716;2024-03-29T09:10:44;7.90;67.80
11229;DHT22;5671;47.936;8.716;2024-03-29T09:13:12;8.00;67.30
11229;DHT22;5671;47.936;8.716;2024-03-29T09:15:49;8.10;66.00
11229;DHT22;5671;47.936;8.716;2024-03-29T09:18:16;8.30;64.80
11229;DHT22;5671;47.936;8.716;2024-03-29T09:20:56;8.40;63.30
11229;DHT22;5671;47.936;8.716;2024-03-29T09:23:26;8.50;62.90
11229;DHT22;5671;47.936;8.716;2024-03-29T09:25:54;8.80;60.80
11229;DHT22;5671;47.936;8.716;2024-03-29T09:28:22;9.10;62.20
11229;DHT22;5671;47.936;8.716;2024-03-29T09:30:56;9.20;59.60
11229;DHT22;5671;47.936;8.716;2024-03-29T09:33:23;9.40;60.60
11229;DHT22;5671;47.936;8.716;2024-03-29T09:35:50;9.60;59.50
11229;DHT22;5671;47.936;8.716;2024-03-29T09:38:18;9.70;56.10
11229;DHT22;5671;47.936;8.716;2024-03-29T09:40:45;9.80;56.10
11229;DHT22;5671;47.936;8.716;2024-03-29T09:43:14;10.10;56.60
11229;DHT22;5671;47.936;8.716;2024-03-29T09:45:43;10.20;56.40
11229;DHT22;5671;47.936;8.716;2024-03-29T09:48:12;10.40;58.30
11229;DHT22;5671;47.936;8.716;2024-03-29T09:50:39;10.60;57.80
11229;DHT22;5671;47.936;8.716;2024-03-29T09:53:06;10.70;55.60
11229;DHT22;5671;47.936;8.716;2024-03-29T09:55:34;11.00;53.40
11229;DHT22;5671;47.936;8.716;2024-03-29T09:58:02;11.10;53.20
11229;DHT22;5671;47.936;8.716;2024-03-29T10:00:29;11.20;53.10
11229;DHT22;5671;47.936;8.716;2024-03-29T10:02:56;11.40;52.00
11229;DHT22;5671;47.936;8.716;2024-03-29T10:05:26;11.50;52.70
11229;DHT22;5671;47.936;8.716;2024-03-29T10:07:54;11.60;51.80
11229;DHT22;5671;47.936;8.716;2024-03-29T10:10:21;11.80;50.40
11229;DHT22;5671;47.936;8.716;2024-03-29T10:12:48;12.00;50.40
11229;DHT22;5671;47.936;8.716;2024-03-29T10:15:15;12.20;50.20
11229;DHT22;5671;47.936;8.716;2024-03-29T10:17:45;12.40;49.70
11229;DHT22;5671;47.936;8.716;2024-03-29T10:20:16;12.60;47.90
11229;DHT22;5671;47.936;8.716;2024-03-29T10:22:45;12.70;47.30
11229;DHT22;5671;47.936;8.716;2024-03-29T10:25:13;12.90;47.90
11229;DHT22;5671;47.936;8.716;2024-03-29T10:27:40;13.00;45.80
11229;DHT22;5671;47.936;8.716;2024-03-29T10:30:10;13.10;48.00
11229;DHT22;5671;47.936;8.716;2024-03-29T10:32:42;13.30;47.40
11229;DHT22;5671;47.936;8.716;2024-03-29T10:35:09;13.40;44.40
11229;DHT22;5671;47.936;8.716;2024-03-29T10:37:38;13.50;45.50
11229;DHT22;5671;47.936;8.716;2024-03-29T10:40:11;13.60;45.60
11229;DHT22;5671;47.936;8.716;2024-03-29T10:42:41;13.80;46.50
11229;DHT22;5671;47.936;8.716;2024-03-29T10:45:11;13.90;44.90
11229;DHT22;5671;47.936;8.716;2024-03-29T10:47:38;14.00;48.00
11229;DHT22;5671;47.936;8.716;2024-03-29T10:50:10;14.10;45.80
11229;DHT22;5671;47.936;8.716;2024-03-29T10:52:39;14.30;46.10
11229;DHT22;5671;47.936;8.716;2024-03-29T10:55:09;14.40;45.40
11229;DHT22;5671;47.936;8.716;2024-03-29T10:57:40;14.50;45.00
11229;DHT22;5671;47.936;8.716;2024-03-29T11:00:11;14.70;43.30
11229;DHT22;5671;47.936;8.716;2024-03-29T11:02:48;14.90;44.50
11229;DHT22;5671;47.936;8.716;2024-03-29T11:05:16;15.00;44.90
11229;DHT22;5671;47.936;8.716;2024-03-29T11:07:44;15.00;42.80
11229;DHT22;5671;47.936;8.716;2024-03-29T11:10:15;15.10;44.30
11229;DHT22;5671;47.936;8.716;2024-03-29T11:12:50;15.10;43.50
11229;DHT22;5671;47.936;8.716;2024-03-29T11:15:28;15.10;43.40
11229;DHT22;5671;47.936;8.716;2024-03-29T11:17:56;15.20;44.70
11229;DHT22;5671;47.936;8.716;2024-03-29T11:20:24;15.20;43.30
11229;DHT22;5671;47.936;8.716;2024-03-29T11:23:01;15.30;43.80
11229;DHT22;5671;47.936;8.716;2024-03-29T11:25:39;15.40;44.20
11229;DHT22;5671;47.936;8.716;2024-03-29T11:28:07;15.50;43.90
11229;DHT22;5671;47.936;8.716;2024-03-29T11:30:42;15.50;43.00
11229;DHT22;5671;47.936;8.716;2024-03-29T11:33:31;15.60;43.20
11229;DHT22;5671;47.936;8.716;2024-03-29T11:35:59;15.60;44.00
11229;DHT22;5671;47.936;8.716;2024-03-29T11:38:31;15.80;43.60
11229;DHT22;5671;47.936;8.716;2024-03-29T11:41:06;15.80;42.80
11229;DHT22;5671;47.936;8.716;2024-03-29T11:43:35;15.80;44.50
11229;DHT22;5671;47.936;8.716;2024-03-29T11:46:04;15.80;42.70
11229;DHT22;5671;47.936;8.716;2024-03-29T11:48:31;15.70;43.30
11229;DHT22;5671;47.936;8.716;2024-03-29T11:50:59;15.70;43.60
11229;DHT22;5671;47.936;8.716;2024-03-29T11:53:26;15.70;43.90
11229;DHT22;5671;47.936;8.716;2024-03-29T11:55:55;15.70;43.10
11229;DHT22;5671;47.936;8.716;2024-03-29T11:58:22;15.70;43.50
11229;DHT22;5671;47.936;8.716;2024-03-29T12:00:51;15.80;42.90
11229;DHT22;5671;47.936;8.716;2024-03-29T12:03:19;15.90;45.50
11229;DHT22;5671;47.936;8.716;2024-03-29T12:05:48;15.90;43.20
11229;DHT22;5671;47.936;8.716;2024-03-29T12:08:16;16.00;43.80
11229;DHT22;5671;47.936;8.716;2024-03-29T12:10:43;16.00;42.80
11229;DHT22;5671;47.936;8.716;2024-03-29T12:13:10;16.10;44.10
11229;DHT22;5671;47.936;8.716;2024-03-29T12:15:37;16.10;42.60
11229;DHT22;5671;47.936;8.716;2024-03-29T12:18:05;16.30;42.50
11229;DHT22;5671;47.936;8.716;2024-03-29T12:20:32;16.30;43.40
11229;DHT22;5671;47.936;8.716;2024-03-29T12:23:04;16.30;41.50
11229;DHT22;5671;47.936;8.716;2024-03-29T12:25:33;16.30;41.30
11229;DHT22;5671;47.936;8.716;2024-03-29T12:28:00;16.30;43.40
11229;DHT22;5671;47.936;8.716;2024-03-29T12:30:27;16.40;44.10
11229;DHT22;5671;47.936;8.716;2024-03-29T12:33:01;16.40;42.80
11229;DHT22;5671;47.936;8.716;2024-03-29T12:35:32;16.50;42.30
11229;DHT22;5671;47.936;8.716;2024-03-29T12:38:05;16.60;42.10
11229;DHT22;5671;47.936;8.716;2024-03-29T12:40:33;16.70;41.20
11229;DHT22;5671;47.936;8.716;2024-03-29T12:43:04;16.70;41.50
11229;DHT22;5671;47.936;8.716;2024-03-29T12:45:34;16.70;41.40
11229;DHT22;5671;47.936;8.716;2024-03-29T12:48:02;16.90;41.00
11229;DHT22;5671;47.936;8.716;2024-03-29T12:50:31;16.90;41.30
11229;DHT22;5671;47.936;8.716;2024-03-29T12:53:00;17.00;41.50
11229;DHT22;5671;47.936;8.716;2024-03-29T12:55:28;17.00;41.50
11229;DHT22;5671;47.936;8.716;2024-03-29T12:57:57;17.00;41.20
11229;DHT22;5671;47.936;8.716;2024-03-29T13:00:26;17.10;41.30
11229;DHT22;5671;47.936;8.716;2024-03-29T13:02:53;17.10;41.40
11229;DHT22;5671;47.936;8.716;2024-03-29T13:05:20;17.20;42.20
11229;DHT22;5671;47.936;8.716;2024-03-29T13:07:49;17.20;40.20
11229;DHT22;5671;47.936;8.716;2024-03-29T13:10:16;17.20;39.80
11229;DHT22;5671;47.936;8.716;2024-03-29T13:12:45;17.20;41.00
11229;DHT22;5671;47.936;8.716;2024-03-29T13:15:18;17.30;40.20
11229;DHT22;5671;47.936;8.716;2024-03-29T13:17:46;17.30;40.50
11229;DHT22;5671;47.936;8.716;2024-03-29T13:20:15;17.40;41.30
11229;DHT22;5671;47.936;8.716;2024-03-29T13:22:43;17.40;42.10
11229;DHT22;5671;47.936;8.716;2024-03-29T13:25:13;17.50;41.20
11229;DHT22;5671;47.936;8.716;2024-03-29T13:27:41;17.50;41.80
11229;DHT22;5671;47.936;8.716;2024-03-29T13:30:09;17.60;40.90
11229;DHT22;5671;47.936;8.716;2024-03-29T13:32:38;17.60;40.30
11229;DHT22;5671;47.936;8.716;2024-03-29T13:35:07;17.70;40.20
11229;DHT22;5671;47.936;8.716;2024-03-29T13:37:37;17.80;40.70
11229;DHT22;5671;47.936;8.716;2024-03-29T13:40:06;17.80;41.80
11229;DHT22;5671;47.936;8.716;2024-03-29T13:42:36;17.90;41.10
11229;DHT22;5671;47.936;8.716;2024-03-29T13:45:04;18.00;40.70
11229;DHT22;5671;47.936;8.716;2024-03-29T13:47:32;18.00;41.30
11229;DHT22;5671;47.936;8.716;2024-03-29T13:49:59;17.90;39.10
11229;DHT22;5671;47.936;8.716;2024-03-29T13:52:26;17.90;40.60
11229;DHT22;5671;47.936;8.716;2024-03-29T13:54:53;17.90;40.30
11229;DHT22;5671;47.936;8.716;2024-03-29T13:57:25;18.00;39.30
11229;DHT22;5671;47.936;8.716;2024-03-29T13:59:53;18.00;39.80
11229;DHT22;5671;47.936;8.716;2024-03-29T14:02:20;18.00;39.30
11229;DHT22;5671;47.936;8.716;2024-03-29T14:04:48;17.90;40.80
11229;DHT22;5671;47.936;8.716;2024-03-29T14:07:16;17.90;41.20
11229;DHT22;5671;47.936;8.716;2024-03-29T14:09:44;17.90;40.20
11229;DHT22;5671;47.936;8.716;2024-03-29T14:12:11;18.00;39.40
11229;DHT22;5671;47.936;8.716;2024-03-29T14:14:39;18.00;40.40
11229;DHT22;5671;47.936;8.716;2024-03-29T14:17:11;18.00;39.70
11229;DHT22;5671;47.936;8.716;2024-03-29T14:19:38;17.90;41.20
11229;DHT22;5671;47.936;8.716;2024-03-29T14:22:06;17.90;39.60
11229;DHT22;5671;47.936;8.716;2024-03-29T14:24:34;17.80;40.00
11229;DHT22;5671;47.936;8.716;2024-03-29T14:27:02;17.80;40.10
11229;DHT22;5671;47.936;8.716;2024-03-29T14:29:33;17.80;40.90
11229;DHT22;5671;47.936;8.716;2024-03-29T14:32:00;17.80;42.20
11229;DHT22;5671;47.936;8.716;2024-03-29T14:34:29;17.80;41.40
11229;DHT22;5671;47.936;8.716;2024-03-29T14:36:57;17.70;41.40
11229;DHT22;5671;47.936;8.716;2024-03-29T14:39:24;17.70;40.50
11229;DHT22;5671;47.936;8.716;2024-03-29T14:41:53;17.60;40.50
11229;DHT22;5671;47.936;8.716;2024-03-29T14:44:21;17.60;39.70
11229;DHT22;5671;47.936;8.716;2024-03-29T14:46:49;17.50;40.00
11229;DHT22;5671;47.936;8.716;2024-03-29T14:49:16;17.50;40.00
11229;DHT22;5671;47.936;8.716;2024-03-29T14:51:44;17.40;39.40
11229;DHT22;5671;47.936;8.716;2024-03-29T14:54:11;17.40;41.00
11229;DHT22;5671;47.936;8.716;2024-03-29T14:56:38;17.30;40.20
11229;DHT22;5671;47.936;8.716;2024-03-29T14:59:06;17.30;39.70
11229;DHT22;5671;47.936;8.716;2024-03-29T15:01:38;17.30;40.70
11229;DHT22;5671;47.936;8.716;2024-03-29T15:04:04;17.20;40.10
11229;DHT22;5671;47.936;8.716;2024-03-29T15:06:31;17.20;41.30
11229;DHT22;5671;47.936;8.716;2024-03-29T15:09:00;17.10;40.30
11229;DHT22;5671;47.936;8.716;2024-03-29T15:11:27;17.10;40.20
11229;DHT22;5671;47.936;8.716;2024-03-29T15:13:54;17.00;40.40
11229;DHT22;5671;47.936;8.716;2024-03-29T15:16:21;17.00;41.80
11229;DHT22;5671;47.936;8.716;2024-03-29T15:18:52;17.00;42.10
11229;DHT22;5671;47.936;8.716;2024-03-29T15:21:22;16.90;42.00
11229;DHT22;5671;47.936;8.716;2024-03-29T15:23:49;16.90;41.80
11229;DHT22;5671;47.936;8.716;2024-03-29T15:26:17;16.90;41.70
11229;DHT22;5671;47.936;8.716;2024-03-29T15:28:45;16.80;41.80
11229;DHT22;5671;47.936;8.716;2024-03-29T15:31:34;16.80;41.90
11229;DHT22;5671;47.936;8.716;2024-03-29T15:34:04;16.70;42.40
11229;DHT22;5671;47.936;8.716;2024-03-29T15:36:32;16.70;42.00
11229;DHT22;5671;47.936;8.716;2024-03-29T15:38:59;16.70;42.10
11229;DHT22;5671;47.936;8.716;2024-03-29T15:41:35;16.70;41.80
11229;DHT22;5671;47.936;8.716;2024-03-29T15:44:02;16.60;42.40
11229;DHT22;5671;47.936;8.716;2024-03-29T15:46:30;16.60;42.70
11229;DHT22;5671;47.936;8.716;2024-03-29T15:48:57;16.60;42.20
11229;DHT22;5671;47.936;8.716;2024-03-29T15:51:24;16.50;42.80
11229;DHT22;5671;47.936;8.716;2024-03-29T15:53:51;16.50;44.80
11229;DHT22;5671;47.936;8.716;2024-03-29T15:56:19;16.50;42.80